Time;durP1;ratioP1;P1;durP2;ratioP2;P2;SDS_P1;SDS_P2;PMS_P1;PMS_P2;Temp;Humidity;BMP_temperature;BMP_pressure;BME280_temperature;BME280_humidity;BME280_pressure;Samples;Min_cycle;Max_cycle;Signal;HPM_P1;HPM_P2
2022/12/04 00:01:42;;;;;;;81.97;35.70;;;;;;;-1.13;100.00;101598.84;4883693;29;20414;-85
2022/12/04 00:04:09;;;;;;;74.07;31.33;;;;;;;-1.35;100.00;101603.94;4887833;29;20055;-84
2022/12/04 00:06:36;;;;;;;79.87;35.27;;;;;;;-1.37;100.00;101592.63;4908023;29;20042;-85
2022/12/04 00:09:07;;;;;;;83.23;32.20;;;;;;;-1.40;100.00;101600.28;4912823;29;20047;-84
2022/12/04 00:11:40;;;;;;;81.13;32.50;;;;;;;-1.36;100.00;101602.16;4899897;29;20036;-86
2022/12/04 00:14:07;;;;;;;84.17;36.40;;;;;;;-1.23;100.00;101593.22;4905889;29;20071;-85
2022/12/04 00:16:34;;;;;;;77.53;34.50;;;;;;;-1.20;100.00;101589.03;4910609;29;20040;-85
2022/12/04 00:19:01;;;;;;;83.97;32.87;;;;;;;-1.30;100.00;101599.84;4888527;29;20109;-85
2022/12/04 00:21:29;;;;;;;86.43;33.13;;;;;;;-1.13;100.00;101585.00;4926616;29;20032;-87
2022/12/04 00:23:56;;;;;;;80.13;33.70;;;;;;;-1.15;100.00;101584.06;4900640;29;20047;-85
2022/12/04 00:26:25;;;;;;;82.27;35.47;;;;;;;-1.19;100.00;101587.31;4904547;29;20039;-85
2022/12/04 00:28:53;;;;;;;79.13;32.17;;;;;;;-1.20;100.00;101591.63;4913689;29;20719;-84
2022/12/04 00:31:22;;;;;;;82.43;35.80;;;;;;;-1.11;100.00;101587.66;4904853;29;20043;-85
2022/12/04 00:33:50;;;;;;;90.57;36.23;;;;;;;-1.18;100.00;101586.50;4895618;29;20042;-85
2022/12/04 00:36:19;;;;;;;77.70;35.53;;;;;;;-1.17;100.00;101589.19;4896745;29;20044;-85
2022/12/04 00:38:46;;;;;;;80.17;34.30;;;;;;;-1.18;100.00;101584.81;4919107;29;20043;-84
2022/12/04 00:41:16;;;;;;;83.60;34.33;;;;;;;-1.18;100.00;101586.50;4902226;29;20525;-86
2022/12/04 00:43:44;;;;;;;85.03;36.60;;;;;;;-1.14;100.00;101585.81;4903504;29;20607;-86
2022/12/04 00:46:11;;;;;;;76.77;36.37;;;;;;;-1.20;100.00;101588.16;4895791;29;20044;-86
2022/12/04 00:48:38;;;;;;;90.00;37.07;;;;;;;-1.11;100.00;101585.94;4895839;29;20040;-85
2022/12/04 00:51:11;;;;;;;84.40;36.27;;;;;;;-1.21;100.00;101583.78;4898824;29;20412;-87
2022/12/04 00:53:38;;;;;;;71.90;32.47;;;;;;;-1.10;100.00;101589.41;4897258;29;20412;-86
2022/12/04 00:56:11;;;;;;;77.80;32.83;;;;;;;-1.15;100.00;101587.53;4901372;29;20036;-86
2022/12/04 00:58:43;;;;;;;77.73;35.87;;;;;;;-1.07;100.00;101577.47;4917098;29;20047;-86
2022/12/04 01:01:13;;;;;;;76.87;33.30;;;;;;;-1.20;100.00;101576.06;4917236;29;20049;-86
2022/12/04 01:03:42;;;;;;;84.73;33.50;;;;;;;-1.33;100.00;101568.63;4898460;29;20050;-86
2022/12/04 01:06:23;;;;;;;92.17;39.03;;;;;;;-1.13;100.00;101570.31;4895493;29;20054;-87
2022/12/04 01:08:52;;;;;;;84.10;36.47;;;;;;;-1.29;100.00;101582.56;4903734;29;20044;-85
2022/12/04 01:11:20;;;;;;;91.47;35.63;;;;;;;-1.08;100.00;101575.72;4903203;29;20042;-86
2022/12/04 01:13:47;;;;;;;86.30;37.40;;;;;;;-1.22;100.00;101572.53;4914952;29;20039;-85
2022/12/04 01:16:15;;;;;;;91.97;36.80;;;;;;;-1.10;100.00;101568.66;4911955;29;20667;-88
2022/12/04 01:18:42;;;;;;;88.17;35.70;;;;;;;-1.02;100.00;101567.28;4916074;29;20050;-86
2022/12/04 01:21:11;;;;;;;78.37;36.00;;;;;;;-0.99;100.00;101572.59;4897489;29;20036;-86
2022/12/04 01:23:38;;;;;;;81.80;37.27;;;;;;;-0.94;100.00;101573.66;4915105;29;20040;-85
2022/12/04 01:26:05;;;;;;;91.27;37.47;;;;;;;-1.13;100.00;101567.72;4896679;29;20050;-86
2022/12/04 01:28:32;;;;;;;84.30;35.97;;;;;;;-1.05;100.00;101565.44;4892845;29;20052;-85
2022/12/04 01:31:05;;;;;;;87.27;38.27;;;;;;;-1.20;100.00;101575.19;4891430;29;20047;-85
2022/12/04 01:33:33;;;;;;;83.43;35.10;;;;;;;-1.05;100.00;101569.75;4903983;29;20044;-85
2022/12/04 01:36:01;;;;;;;81.13;33.93;;;;;;;-1.08;100.00;101580.00;4898899;29;20048;-85
2022/12/04 01:38:28;;;;;;;87.33;35.03;;;;;;;-1.00;100.00;101579.50;4882363;29;20043;-85
2022/12/04 01:40:56;;;;;;;86.97;36.10;;;;;;;-0.97;100.00;101569.25;4902825;29;20051;-86
2022/12/04 01:43:24;;;;;;;86.50;37.57;;;;;;;-1.16;100.00;101569.31;4896948;29;20040;-86
2022/12/04 01:45:58;;;;;;;83.73;35.57;;;;;;;-1.07;100.00;101566.22;4912084;29;20689;-85
2022/12/04 01:48:27;;;;;;;79.27;34.93;;;;;;;-1.00;100.00;101570.84;4897376;29;20040;-86
2022/12/04 01:51:00;;;;;;;80.23;36.03;;;;;;;-0.98;100.00;101564.00;4890017;29;20031;-85
2022/12/04 01:53:28;;;;;;;83.57;32.90;;;;;;;-1.13;100.00;101572.91;4895012;29;20417;-85
2022/12/04 01:55:55;;;;;;;95.83;36.90;;;;;;;-1.03;100.00;101562.91;4903225;29;20119;-84
2022/12/04 01:58:27;;;;;;;91.83;37.37;;;;;;;-1.08;100.00;101561.84;4893855;29;20052;-84
2022/12/04 02:00:58;;;;;;;87.53;37.27;;;;;;;-1.01;100.00;101563.84;4911566;29;20551;-85
2022/12/04 02:03:29;;;;;;;96.50;39.67;;;;;;;-1.01;100.00;101556.06;4896950;29;20046;-86
2022/12/04 02:05:57;;;;;;;81.70;37.60;;;;;;;-1.14;100.00;101554.69;4886691;29;20509;-87
2022/12/04 02:08:25;;;;;;;80.30;34.77;;;;;;;-1.00;100.00;101557.88;4887537;29;20055;-85
2022/12/04 02:11:06;;;;;;;94.43;37.07;;;;;;;-0.99;100.00;101555.34;1524762;23;20352;-80
2022/12/04 02:14:02;;;;;;;93.27;38.80;;;;;;;-1.06;100.00;101545.53;4929931;29;20064;-81
2022/12/04 02:16:40;;;;;;;95.37;40.13;;;;;;;-1.11;100.00;101541.84;4936330;29;20099;-80
2022/12/04 02:19:33;;;;;;;95.37;38.30;;;;;;;-1.16;100.00;101548.56;4911893;29;20852;-80
2022/12/04 02:22:03;;;;;;;88.93;39.23;;;;;;;-1.08;100.00;101554.06;4931304;29;20059;-81
2022/12/04 02:24:46;;;;;;;93.33;40.37;;;;;;;-1.03;100.00;101548.22;4916341;29;20517;-81
2022/12/04 02:27:30;;;;;;;87.80;39.53;;;;;;;-1.11;100.00;101551.34;4921753;29;20104;-80
2022/12/04 02:30:02;;;;;;;95.17;39.33;;;;;;;-1.14;100.00;101553.00;4929459;29;20136;-80
2022/12/04 02:32:37;;;;;;;85.93;35.70;;;;;;;-1.07;100.00;101545.47;4928765;29;20123;-79
2022/12/04 02:35:12;;;;;;;87.43;37.50;;;;;;;-0.92;100.00;101539.19;4927406;29;20125;-80
2022/12/04 02:37:49;;;;;;;97.50;37.20;;;;;;;-0.98;100.00;101548.44;4929205;29;20123;-80
2022/12/04 02:40:38;;;;;;;82.87;36.40;;;;;;;-0.97;100.00;101538.13;4932216;29;20139;-79
2022/12/04 02:43:11;;;;;;;95.77;39.53;;;;;;;-1.14;100.00;101545.22;4913544;29;20112;-80
2022/12/04 02:45:47;;;;;;;85.80;36.23;;;;;;;-1.08;100.00;101538.53;4910399;29;20119;-81
2022/12/04 02:48:18;;;;;;;89.63;37.97;;;;;;;-0.99;100.00;101544.06;4933554;29;20060;-79
2022/12/04 02:50:48;;;;;;;86.03;37.83;;;;;;;-1.03;100.00;101544.75;4884848;29;20082;-80
2022/12/04 02:53:18;;;;;;;88.83;38.43;;;;;;;-1.18;100.00;101548.53;4907911;29;20109;-80
2022/12/04 02:55:53;;;;;;;95.37;41.23;;;;;;;-0.92;100.00;101544.38;4925355;29;20115;-80
2022/12/04 02:58:20;;;;;;;;;;;;;;;-0.96;100.00;101539.88;4928964;29;20108;-79
2022/12/04 03:00:47;;;;;;;93.93;38.03;;;;;;;-1.05;100.00;101530.84;4934355;29;19994;-79
2022/12/04 03:03:22;;;;;;;98.73;37.03;;;;;;;-0.83;100.00;101527.41;4928319;29;20060;-79
2022/12/04 03:05:48;;;;;;;;;;;;;;;-0.92;100.00;101527.94;4893320;29;20135;-79
2022/12/04 03:08:19;;;;;;;90.33;34.83;;;;;;;-0.93;100.00;101524.44;4933745;29;19986;-80
2022/12/04 03:10:50;;;;;;;88.33;38.57;;;;;;;-0.94;100.00;101524.38;4934388;29;20126;-79
2022/12/04 03:13:45;;;;;;;93.90;37.90;;;;;;;-1.02;100.00;101518.88;4927763;29;20096;-79
2022/12/04 03:16:16;;;;;;;92.28;37.22;;;;;;;-0.89;100.00;101525.47;4926853;29;20127;-80
2022/12/04 03:19:02;;;;;;;86.13;35.30;;;;;;;-0.83;100.00;101532.59;4946694;29;20060;-79
2022/12/04 03:21:34;;;;;;;90.65;36.67;;;;;;;-0.99;100.00;101533.69;4929329;29;20101;-79
2022/12/04 03:24:35;;;;;;;107.37;39.27;;;;;;;-0.88;100.00;101528.09;4930428;29;20060;-79
2022/12/04 03:27:30;;;;;;;91.60;37.37;;;;;;;-0.83;100.00;101525.72;4918300;29;20111;-79
2022/12/04 03:30:03;;;;;;;89.60;38.08;;;;;;;-0.81;100.00;101533.53;4930416;29;20902;-80
2022/12/04 03:32:40;;;;;;;91.47;38.40;;;;;;;-1.00;100.00;101525.03;4940518;29;20107;-79
2022/12/04 03:35:16;;;;;;;87.67;36.93;;;;;;;-0.88;100.00;101535.00;4934483;29;20096;-80
2022/12/04 03:37:54;;;;;;;89.30;37.53;;;;;;;-0.88;100.00;101535.00;4942645;29;20059;-80
2022/12/04 03:40:56;;;;;;;94.27;39.53;;;;;;;-0.69;100.00;101523.63;4915758;29;20079;-80
2022/12/04 03:43:36;;;;;;;82.93;35.63;;;;;;;-0.73;100.00;101525.22;4935751;29;20063;-79
2022/12/04 03:46:14;;;;;;;87.13;38.47;;;;;;;-0.82;100.00;101522.28;4944599;29;20118;-80
2022/12/04 03:48:45;;;;;;;97.77;38.83;;;;;;;-0.72;100.00;101513.16;4944615;29;20066;-79
2022/12/04 03:51:17;;;;;;;89.80;38.43;;;;;;;-0.94;100.00;101514.00;4929757;29;21936;-79
2022/12/04 03:53:53;;;;;;;91.13;39.27;;;;;;;-0.82;100.00;101516.22;4931101;29;20064;-79
2022/12/04 03:56:23;;;;;;;90.43;38.60;;;;;;;-0.76;100.00;101504.34;4943215;29;20075;-79
2022/12/04 03:58:54;;;;;;;84.10;35.13;;;;;;;-0.79;100.00;101501.63;4931143;29;20072;-80
2022/12/04 04:01:23;;;;;;;83.37;37.87;;;;;;;-0.91;100.00;101512.44;4915830;29;20123;-80
2022/12/04 04:03:52;;;;;;;90.13;38.83;;;;;;;-0.76;100.00;101490.47;4926964;29;20480;-79
2022/12/04 04:06:36;;;;;;;89.40;37.73;;;;;;;-0.92;100.00;101500.28;4928686;29;20108;-79
2022/12/04 04:09:09;;;;;;;82.07;36.63;;;;;;;-0.81;100.00;101495.50;4927457;29;20127;-80
2022/12/04 04:11:46;;;;;;;94.90;37.67;;;;;;;-0.77;100.00;101502.56;4948310;29;21975;-79
2022/12/04 04:25:56;;;;;;;83.20;37.43;;;;;;;-0.76;100.00;101499.16;4929341;29;20036;-82
2022/12/04 04:28:31;;;;;;;81.33;35.60;;;;;;;-0.79;100.00;101501.63;4905060;29;20052;-83
2022/12/04 04:31:05;;;;;;;79.33;35.00;;;;;;;-0.83;100.00;101504.06;4919718;29;20515;-83
2022/12/04 04:33:35;;;;;;;90.27;38.50;;;;;;;-0.72;100.00;101501.06;4910432;29;20036;-83
2022/12/04 04:36:08;;;;;;;97.23;39.93;;;;;;;-0.80;100.00;101502.47;4907898;29;20046;-83
2022/12/04 04:38:44;;;;;;;94.13;36.50;;;;;;;-0.79;100.00;101499.03;4913628;29;20043;-83
2022/12/04 04:41:19;;;;;;;91.03;36.30;;;;;;;-0.65;100.00;101502.19;4915989;29;20052;-82
2022/12/04 04:44:02;;;;;;;93.83;35.67;;;;;;;-0.69;100.00;101498.56;4929412;29;20032;-83
2022/12/04 04:46:32;;;;;;;81.30;32.60;;;;;;;-0.73;100.00;101501.00;4914755;29;20044;-83
2022/12/04 04:49:02;;;;;;;83.77;37.77;;;;;;;-0.74;100.00;101505.31;4923447;29;20047;-83
2022/12/04 04:51:30;;;;;;;83.47;38.63;;;;;;;-0.72;100.00;101503.66;4928997;29;20044;-82
2022/12/04 04:53:58;;;;;;;85.37;35.57;;;;;;;-0.73;100.00;101493.22;4912138;29;20050;-83
2022/12/04 04:56:25;;;;;;;80.97;34.30;;;;;;;-0.64;100.00;101486.66;4929276;29;20399;-84
2022/12/04 04:58:52;;;;;;;78.47;35.30;;;;;;;-0.66;100.00;101490.03;4914077;29;20040;-83
2022/12/04 05:01:22;;;;;;;82.30;35.30;;;;;;;-0.61;100.00;101491.06;4929556;29;20047;-83
2022/12/04 05:03:49;;;;;;;77.53;35.40;;;;;;;-0.67;100.00;101494.34;4927906;29;20051;-83
2022/12/04 05:06:16;;;;;;;76.07;33.60;;;;;;;-0.76;100.00;101496.56;4895327;29;20036;-83
2022/12/04 05:08:43;;;;;;;85.70;34.47;;;;;;;-0.82;100.00;101495.47;4929523;29;20036;-84
2022/12/04 05:11:14;;;;;;;82.57;35.20;;;;;;;-0.60;100.00;101498.91;4911906;29;20046;-82
2022/12/04 05:13:41;;;;;;;78.80;36.47;;;;;;;-0.51;100.00;101500.97;4906282;29;20040;-82
2022/12/04 05:16:11;;;;;;;81.00;34.70;;;;;;;-0.47;100.00;101499.41;4901410;29;20052;-83
2022/12/04 05:18:38;;;;;;;81.70;36.83;;;;;;;-0.73;100.00;101503.59;4906526;29;20044;-83
2022/12/04 05:21:17;;;;;;;83.23;34.50;;;;;;;-0.68;100.00;101499.44;4887007;29;20048;-82
2022/12/04 05:23:44;;;;;;;85.10;34.33;;;;;;;-0.79;100.00;101495.56;4905702;29;20404;-82
2022/12/04 05:26:11;;;;;;;77.17;32.83;;;;;;;-0.68;100.00;101502.03;4903327;29;20048;-83
2022/12/04 05:28:39;;;;;;;80.83;35.00;;;;;;;-0.64;100.00;101501.34;4897446;29;20036;-83
2022/12/04 05:31:06;;;;;;;86.17;34.67;;;;;;;-0.66;100.00;101503.00;4901691;29;20063;-83
2022/12/04 05:33:33;;;;;;;74.57;35.40;;;;;;;-0.65;100.00;101504.78;4896295;29;20048;-83
2022/12/04 05:36:06;;;;;;;79.27;34.27;;;;;;;-0.76;100.00;101498.25;4901665;29;20056;-84
2022/12/04 05:38:33;;;;;;;84.93;36.57;;;;;;;-0.53;100.00;101496.56;4915293;29;20036;-83
2022/12/04 05:41:01;;;;;;;82.37;33.97;;;;;;;-0.50;100.00;101488.91;4899890;29;20520;-83
2022/12/04 05:43:28;;;;;;;83.60;37.40;;;;;;;-0.49;100.00;101486.38;4897443;29;20058;-83
2022/12/04 05:46:06;;;;;;;81.83;32.63;;;;;;;-0.62;100.00;101482.41;4899404;29;20046;-83
2022/12/04 05:48:34;;;;;;;82.53;34.80;;;;;;;-0.82;100.00;101483.38;4899212;29;20044;-83
2022/12/04 05:51:08;;;;;;;90.20;35.93;;;;;;;-0.64;100.00;101485.78;4909027;29;20130;-79
2022/12/04 05:53:36;;;;;;;85.50;34.27;;;;;;;-0.68;100.00;101486.47;4902749;29;20776;-79
2022/12/04 05:56:05;;;;;;;80.50;35.07;;;;;;;-0.55;100.00;101491.31;4907782;29;20167;-79
2022/12/04 05:58:36;;;;;;;84.03;34.30;;;;;;;-0.63;100.00;101488.44;4905512;29;20107;-79
2022/12/04 06:01:12;;;;;;;84.57;36.07;;;;;;;-0.58;100.00;101486.91;4913374;29;20116;-78
2022/12/04 06:03:39;;;;;;;86.33;36.77;;;;;;;-0.43;100.00;101483.09;4923972;29;20572;-79
2022/12/04 06:06:21;;;;;;;78.67;35.17;;;;;;;-0.54;100.00;101487.88;4933437;29;20096;-79
2022/12/04 06:08:53;;;;;;;83.13;37.20;;;;;;;-0.51;100.00;101485.41;4908004;29;20111;-80
2022/12/04 06:11:29;;;;;;;84.67;37.23;;;;;;;-0.49;100.00;101483.78;4928161;29;20544;-78
2022/12/04 06:13:58;;;;;;;85.33;37.10;;;;;;;-0.36;100.00;101482.50;4920683;29;20131;-79
2022/12/04 06:16:35;;;;;;;84.03;34.00;;;;;;;-0.53;100.00;101492.25;4916355;29;20100;-78
2022/12/04 06:19:14;;;;;;;84.63;34.33;;;;;;;-0.59;100.00;101482.53;4924970;29;20119;-78
2022/12/04 06:21:42;;;;;;;88.43;36.57;;;;;;;-0.42;100.00;101483.19;4929028;29;20473;-79
2022/12/04 06:24:13;;;;;;;83.53;36.27;;;;;;;-0.49;100.00;101488.97;4916989;29;20092;-82
2022/12/04 06:26:43;;;;;;;86.20;36.13;;;;;;;-0.42;100.00;101479.66;4902063;29;20353;-78
2022/12/04 06:29:32;;;;;;;87.63;35.40;;;;;;;-0.47;100.00;101479.50;4900752;29;20122;-83
2022/12/04 06:31:59;;;;;;;86.10;36.83;;;;;;;-0.51;100.00;101479.31;4920631;29;20139;-82
2022/12/04 06:34:27;;;;;;;90.63;36.13;;;;;;;-0.36;100.00;101483.38;4887698;29;20549;-80
2022/12/04 06:36:54;;;;;;;87.53;36.83;;;;;;;-0.48;100.00;101482.06;4896002;29;20100;-78
2022/12/04 06:39:20;;;;;;;85.87;36.97;;;;;;;-0.46;100.00;101475.19;4926313;29;20116;-81
2022/12/04 06:41:47;;;;;;;87.93;35.73;;;;;;;-0.45;100.00;101470.06;4912659;29;20135;-79
2022/12/04 06:44:14;;;;;;;95.80;37.93;;;;;;;-0.35;100.00;101476.47;4916794;29;20096;-80
2022/12/04 06:46:42;;;;;;;82.20;35.33;;;;;;;-0.42;100.00;101477.06;4926197;29;20129;-81
2022/12/04 06:49:13;;;;;;;84.60;37.63;;;;;;;-0.42;100.00;101477.97;4898359;29;20108;-80
2022/12/04 06:51:40;;;;;;;85.37;36.23;;;;;;;-0.33;100.00;101472.25;4918714;29;20139;-79
2022/12/04 06:54:08;;;;;;;91.90;38.03;;;;;;;-0.40;100.00;101484.09;4911607;29;20104;-79
2022/12/04 06:56:35;;;;;;;90.67;36.17;;;;;;;-0.44;100.00;101484.81;4914378;29;20107;-79
2022/12/04 06:59:03;;;;;;;86.70;38.83;;;;;;;-0.52;100.00;101480.16;4911220;29;20096;-80
2022/12/04 07:01:32;;;;;;;90.57;37.93;;;;;;;-0.57;100.00;101480.00;4910239;29;20127;-79
2022/12/04 07:04:02;;;;;;;94.07;37.03;;;;;;;-0.64;100.00;101489.25;4927576;29;20104;-80
2022/12/04 07:06:31;;;;;;;98.57;38.43;;;;;;;-0.46;100.00;101480.41;4934865;29;20108;-79
2022/12/04 07:09:02;;;;;;;95.00;38.20;;;;;;;-0.44;100.00;101484.81;4912973;29;20115;-80
2022/12/04 07:11:29;;;;;;;90.40;38.23;;;;;;;-0.44;100.00;101494.31;4922278;29;20099;-79
2022/12/04 07:13:56;;;;;;;92.60;38.33;;;;;;;-0.41;100.00;101494.44;4943156;29;20092;-79
2022/12/04 07:16:25;;;;;;;100.60;38.97;;;;;;;-0.40;100.00;101486.69;4942140;29;20127;-79
2022/12/04 07:18:52;;;;;;;90.33;37.73;;;;;;;-0.51;100.00;101493.19;4926198;29;20123;-80
2022/12/04 07:21:23;;;;;;;95.03;38.17;;;;;;;-0.33;100.00;101485.22;4925185;29;20138;-79
2022/12/04 07:23:51;;;;;;;84.90;36.90;;;;;;;-0.49;100.00;101493.28;4941609;29;20218;-79
2022/12/04 07:26:19;;;;;;;89.17;37.70;;;;;;;-0.53;100.00;101493.97;4940947;29;20096;-80
2022/12/04 07:28:46;;;;;;;92.63;36.93;;;;;;;-0.36;100.00;101498.06;4925656;29;20472;-79
2022/12/04 07:31:16;;;;;;;89.43;36.73;;;;;;;-0.47;100.00;101500.28;4925084;29;20104;-80
2022/12/04 07:33:45;;;;;;;82.20;34.60;;;;;;;-0.50;100.00;101510.56;4930703;29;20131;-80
2022/12/04 07:36:18;;;;;;;90.17;37.10;;;;;;;-0.30;100.00;101501.78;4940697;29;20084;-78
2022/12/04 07:38:45;;;;;;;88.23;38.77;;;;;;;-0.29;100.00;101503.56;4943814;29;20467;-79
2022/12/04 07:41:13;;;;;;;87.73;35.23;;;;;;;-0.28;100.00;101504.44;4923702;29;20127;-79
2022/12/04 07:43:40;;;;;;;99.13;38.60;;;;;;;-0.23;100.00;101507.22;4926603;29;20096;-79
2022/12/04 07:46:12;;;;;;;95.93;36.70;;;;;;;-0.15;100.00;101508.38;4926438;29;20105;-79
2022/12/04 07:48:39;;;;;;;84.80;37.40;;;;;;;-0.39;100.00;101503.16;4915920;29;20104;-79
2022/12/04 07:51:09;;;;;;;90.67;38.40;;;;;;;-0.23;100.00;101510.69;4944678;29;20115;-79
2022/12/04 07:53:36;;;;;;;88.67;34.33;;;;;;;-0.33;100.00;101511.19;4921231;29;20496;-78
2022/12/04 07:56:04;;;;;;;84.83;37.03;;;;;;;-0.18;100.00;101514.31;4913463;29;20096;-81
2022/12/04 07:58:32;;;;;;;103.63;38.20;;;;;;;-0.24;100.00;101511.53;4928357;29;20100;-79
2022/12/04 08:01:07;;;;;;;89.50;37.07;;;;;;;-0.23;100.00;101512.41;4940685;29;20159;-79
2022/12/04 08:03:34;;;;;;;85.30;36.80;;;;;;;-0.31;100.00;101507.81;4925288;29;20100;-79
2022/12/04 08:06:03;;;;;;;83.20;36.57;;;;;;;-0.33;100.00;101508.59;4922777;29;20123;-80
2022/12/04 08:08:31;;;;;;;84.53;35.63;;;;;;;-0.11;100.00;101510.25;4926037;29;20089;-80
2022/12/04 08:10:58;;;;;;;87.47;35.23;;;;;;;-0.05;100.00;101515.66;4927097;29;20099;-80
2022/12/04 08:13:25;;;;;;;82.83;34.47;;;;;;;-0.06;100.00;101514.78;4922329;29;20123;-79
2022/12/04 08:15:52;;;;;;;83.53;34.03;;;;;;;-0.22;100.00;101515.06;4909024;29;20143;-79
2022/12/04 08:18:19;;;;;;;75.97;33.10;;;;;;;-0.15;100.00;101517.06;4909150;29;20103;-79
2022/12/04 08:20:46;;;;;;;75.03;33.20;;;;;;;-0.22;100.00;101514.16;4935604;29;20119;-80
2022/12/04 08:23:13;;;;;;;84.57;33.93;;;;;;;-0.19;100.00;101516.88;4938723;29;21408;-78
2022/12/04 08:25:40;;;;;;;88.00;35.97;;;;;;;-0.11;100.00;101512.84;4921831;29;20147;-79
2022/12/04 08:28:07;;;;;;;73.40;33.10;;;;;;;-0.19;100.00;101512.56;4921491;29;20123;-79
2022/12/04 08:30:35;;;;;;;73.13;34.17;;;;;;;-0.30;100.00;101526.88;4920906;29;20124;-83
2022/12/04 08:33:02;;;;;;;83.87;33.03;;;;;;;-0.10;100.00;101517.19;4928789;29;20048;-84
2022/12/04 08:35:29;;;;;;;75.83;34.97;;;;;;;-0.21;100.00;101524.59;4928931;29;20401;-83
2022/12/04 08:37:56;;;;;;;81.07;33.10;;;;;;;-0.19;100.00;101522.06;4915640;29;20490;-84
2022/12/04 08:40:23;;;;;;;77.37;33.93;;;;;;;-0.20;100.00;101517.69;4911680;29;20046;-84
2022/12/04 08:42:50;;;;;;;74.13;32.03;;;;;;;-0.05;100.00;101524.34;4926655;29;20036;-83
2022/12/04 08:45:17;;;;;;;79.10;33.80;;;;;;;0.02;100.00;101520.25;4933728;29;20107;-81
2022/12/04 08:47:44;;;;;;;82.03;32.70;;;;;;;0.06;100.00;101521.25;4918215;29;20122;-80
2022/12/04 08:50:17;;;;;;;74.50;32.97;;;;;;;-0.04;100.00;101513.13;4931822;29;20119;-80
2022/12/04 08:52:44;;;;;;;64.23;29.77;;;;;;;-0.06;100.00;101509.59;4901821;29;20096;-79
2022/12/04 08:55:11;;;;;;;74.13;32.57;;;;;;;0.05;100.00;101507.38;4891316;29;20123;-80
2022/12/04 08:57:38;;;;;;;78.73;32.43;;;;;;;0.09;100.00;101522.25;4919547;29;20112;-81
2022/12/04 09:00:06;;;;;;;74.73;31.67;;;;;;;0.10;100.00;101513.63;4919460;29;20096;-82
2022/12/04 09:02:33;;;;;;;67.53;30.43;;;;;;;0.08;100.00;101517.84;4913838;29;20108;-80
2022/12/04 09:04:59;;;;;;;65.30;30.60;;;;;;;-0.06;100.00;101519.97;4933586;29;20123;-81
2022/12/04 09:07:26;;;;;;;71.73;32.50;;;;;;;0.03;100.00;101521.16;4939459;29;20104;-81
2022/12/04 09:09:53;;;;;;;69.20;31.03;;;;;;;0.03;100.00;101523.75;4907954;29;20112;-81
2022/12/04 09:12:21;;;;;;;73.00;32.90;;;;;;;0.01;100.00;101525.41;4924842;29;20108;-79
2022/12/04 09:14:48;;;;;;;75.23;32.47;;;;;;;0.07;100.00;101521.28;4910047;29;20100;-83
2022/12/04 09:17:15;;;;;;;70.83;31.27;;;;;;;0.13;100.00;101512.84;4913579;29;20126;-82
2022/12/04 09:19:42;;;;;;;70.47;30.23;;;;;;;0.26;100.00;101512.47;4938943;29;20175;-82
2022/12/04 09:22:09;;;;;;;67.23;30.97;;;;;;;0.19;100.00;101513.06;4923270;29;20378;-79
2022/12/04 09:24:36;;;;;;;65.70;29.40;;;;;;;0.19;100.00;101513.94;4924512;29;20467;-80
2022/12/04 09:27:04;;;;;;;72.50;32.43;;;;;;;0.13;100.00;101502.44;4924383;29;20561;-79
2022/12/04 09:29:37;;;;;;;67.83;29.40;;;;;;;0.23;100.00;101509.72;4923482;29;20103;-80
2022/12/04 09:32:04;;;;;;;64.63;28.63;;;;;;;0.26;100.00;101502.06;4907220;29;20818;-79
2022/12/04 09:34:34;;;;;;;62.27;29.80;;;;;;;0.24;100.00;101511.50;4925442;29;20104;-81
2022/12/04 09:37:02;;;;;;;65.33;29.77;;;;;;;0.33;100.00;101497.94;4924312;29;20181;-79
2022/12/04 09:39:29;;;;;;;66.67;27.83;;;;;;;0.17;100.00;101501.72;4923299;29;20130;-80
2022/12/04 09:42:07;;;;;;;60.10;29.50;;;;;;;0.25;100.00;101500.25;4906487;29;20117;-79
2022/12/04 09:44:39;;;;;;;73.37;30.67;;;;;;;0.30;100.00;101497.84;4936934;29;20107;-79
2022/12/04 09:47:18;;;;;;;65.40;28.40;;;;;;;0.33;100.00;101497.94;4919007;29;20099;-82
2022/12/04 09:49:49;;;;;;;62.60;27.73;;;;;;;0.26;100.00;101487.34;4907348;29;20167;-80
2022/12/04 09:52:23;;;;;;;67.57;29.70;;;;;;;0.21;100.00;101493.22;4933769;29;20037;-79
2022/12/04 09:54:51;;;;;;;70.28;28.75;;;;;;;0.32;100.00;101483.16;4930016;29;20032;-79
2022/12/04 09:57:26;;;;;;;63.83;31.03;;;;;;;0.30;100.00;101483.13;4900376;29;20135;-81
2022/12/04 09:59:54;;;;;;;67.97;30.63;;;;;;;0.35;100.00;101483.28;4917982;29;20138;-80
2022/12/04 10:02:36;;;;;;;66.70;29.73;;;;;;;0.33;100.00;101480.63;4932955;29;20044;-80
2022/12/04 10:05:06;;;;;;;67.97;31.03;;;;;;;0.42;100.00;101474.84;4932738;29;20135;-79
2022/12/04 10:07:51;;;;;;;61.07;29.73;;;;;;;0.32;100.00;101486.66;4900383;29;20104;-80
2022/12/04 10:10:27;;;;;;;63.33;28.87;;;;;;;0.32;100.00;101477.97;4936762;29;20096;-82
2022/12/04 10:13:13;;;;;;;62.73;28.77;;;;;;;0.46;100.00;101480.22;4913745;29;20048;-84
2022/12/04 10:16:08;;;;;;;58.70;27.77;;;;;;;0.43;100.00;101482.72;4928729;29;20043;-83
2022/12/04 10:18:44;;;;;;;71.17;31.03;;;;;;;0.46;100.00;101476.72;4900527;29;20040;-81
2022/12/04 10:21:31;;;;;;;74.20;28.60;;;;;;;0.42;100.00;101467.97;4930625;29;20123;-79
2022/12/04 10:24:17;;;;;;;64.53;28.23;;;;;;;0.22;100.00;101469.88;4919177;29;20546;-79
2022/12/04 10:26:49;;;;;;;74.00;32.13;;;;;;;0.15;100.00;101469.59;4921883;29;20093;-80
2022/12/04 10:29:25;;;;;;;63.87;29.37;;;;;;;0.27;100.00;101462.25;4928327;29;20104;-81
2022/12/04 10:31:54;;;;;;;67.97;28.57;;;;;;;0.43;100.00;101450.66;4919510;29;20044;-81
2022/12/04 10:34:26;;;;;;;64.63;29.17;;;;;;;0.42;100.00;101456.66;4930833;29;20129;-82
2022/12/04 10:36:59;;;;;;;63.97;29.43;;;;;;;0.46;100.00;101451.63;4929045;29;20051;-82
2022/12/04 10:39:41;;;;;;;67.30;27.97;;;;;;;0.54;100.00;101447.56;4912223;29;20119;-82
2022/12/04 10:42:14;;;;;;;66.43;28.93;;;;;;;0.50;100.00;101450.88;4921367;29;20111;-79
2022/12/04 10:44:42;;;;;;;65.20;28.00;;;;;;;0.40;100.00;101448.81;4939231;29;20131;-81
2022/12/04 10:47:11;;;;;;;69.23;30.67;;;;;;;0.55;100.00;101445.84;4939373;29;20099;-81
2022/12/04 10:49:39;;;;;;;62.67;27.57;;;;;;;0.50;100.00;101453.47;4921220;29;20111;-80
2022/12/04 10:52:12;;;;;;;64.37;27.57;;;;;;;0.39;100.00;101456.56;4937971;29;20111;-80
2022/12/04 10:54:49;;;;;;;62.67;29.43;;;;;;;0.45;100.00;101447.25;4908302;29;20047;-80
2022/12/04 10:57:17;;;;;;;62.20;29.40;;;;;;;0.37;100.00;101447.84;4913488;29;20656;-82
2022/12/04 10:59:55;;;;;;;67.90;29.47;;;;;;;0.49;100.00;101450.81;4908383;29;20128;-80
2022/12/04 11:02:24;;;;;;;64.30;29.77;;;;;;;0.52;100.00;101450.94;4910532;29;20136;-82
2022/12/04 11:05:20;;;;;;;70.03;29.80;;;;;;;0.51;100.00;101447.47;4941216;29;20123;-80
2022/12/04 11:07:53;;;;;;;71.97;31.50;;;;;;;0.50;100.00;101447.38;4920899;29;20067;-80
2022/12/04 11:10:41;;;;;;;69.40;30.20;;;;;;;0.52;100.00;101451.81;4918979;29;20055;-80
2022/12/04 11:13:12;;;;;;;67.23;30.27;;;;;;;0.40;100.00;101445.31;4905227;29;20067;-80
2022/12/04 11:15:44;;;;;;;61.70;28.33;;;;;;;0.63;100.00;101433.09;4938929;29;20052;-80
2022/12/04 11:18:22;;;;;;;67.00;30.40;;;;;;;0.71;100.00;101442.00;4936052;29;20079;-80
2022/12/04 11:21:04;;;;;;;63.83;28.33;;;;;;;0.68;100.00;101431.53;4936843;29;20048;-80
2022/12/04 11:23:34;;;;;;;60.13;27.30;;;;;;;0.69;100.00;101434.16;4936831;29;20068;-81
2022/12/04 11:26:02;;;;;;;64.90;29.00;;;;;;;0.73;100.00;101429.94;4921224;29;20067;-80
2022/12/04 11:28:33;;;;;;;62.50;27.70;;;;;;;0.60;100.00;101430.41;4940838;29;20064;-80
2022/12/04 11:31:10;;;;;;;63.67;28.33;;;;;;;0.59;100.00;101436.41;4939196;29;20056;-80
2022/12/04 11:33:44;;;;;;;59.63;28.07;;;;;;;0.66;100.00;101443.56;4936655;29;20062;-81
2022/12/04 11:36:20;;;;;;;56.95;27.42;;;;;;;0.81;100.00;101433.66;4940676;29;20054;-81